sensor_id;sensor_type;location;lat;lon;timestamp;P1;durP1;ratioP1;P2;durP2;ratioP2
12445;SDS011;6287;50.984;7.022;2023-12-22T00:01:11;1.53;;;0.67;;
12445;SDS011;6287;50.984;7.022;2023-12-22T00:03:40;2.23;;;0.60;;
12445;SDS011;6287;50.984;7.022;2023-12-22T00:06:11;1.43;;;0.70;;
12445;SDS011;6287;50.984;7.022;2023-12-22T00:08:37;2.50;;;1.10;;
12445;SDS011;6287;50.984;7.022;2023-12-22T00:11:03;0.80;;;0.80;;
12445;SDS011;6287;50.984;7.022;2023-12-22T00:13:29;2.00;;;0.90;;
12445;SDS011;6287;50.984;7.022;2023-12-22T00:15:55;1.70;;;1.00;;
12445;SDS011;6287;50.984;7.022;2023-12-22T00:18:20;4.00;;;0.90;;
12445;SDS011;6287;50.984;7.022;2023-12-22T00:20:48;2.00;;;0.60;;
12445;SDS011;6287;50.984;7.022;2023-12-22T00:23:14;1.13;;;0.57;;
12445;SDS011;6287;50.984;7.022;2023-12-22T00:25:39;1.40;;;0.63;;
12445;SDS011;6287;50.984;7.022;2023-12-22T00:28:05;2.57;;;0.60;;
12445;SDS011;6287;50.984;7.022;2023-12-22T00:30:33;1.33;;;0.60;;
12445;SDS011;6287;50.984;7.022;2023-12-22T00:33:02;2.30;;;0.90;;
12445;SDS011;6287;50.984;7.022;2023-12-22T00:35:27;4.90;;;0.73;;
12445;SDS011;6287;50.984;7.022;2023-12-22T00:37:53;3.27;;;1.00;;
12445;SDS011;6287;50.984;7.022;2023-12-22T00:40:19;4.10;;;0.80;;
12445;SDS011;6287;50.984;7.022;2023-12-22T00:42:44;3.60;;;1.37;;
12445;SDS011;6287;50.984;7.022;2023-12-22T00:45:10;2.07;;;0.77;;
12445;SDS011;6287;50.984;7.022;2023-12-22T00:47:36;2.83;;;0.63;;
12445;SDS011;6287;50.984;7.022;2023-12-22T00:50:02;3.60;;;0.73;;
12445;SDS011;6287;50.984;7.022;2023-12-22T00:52:30;2.43;;;0.73;;
12445;SDS011;6287;50.984;7.022;2023-12-22T00:54:56;1.97;;;0.90;;
12445;SDS011;6287;50.984;7.022;2023-12-22T00:57:22;2.20;;;0.97;;
12445;SDS011;6287;50.984;7.022;2023-12-22T00:59:48;2.13;;;0.70;;
12445;SDS011;6287;50.984;7.022;2023-12-22T01:02:16;1.17;;;0.90;;
12445;SDS011;6287;50.984;7.022;2023-12-22T01:04:46;2.90;;;0.90;;
12445;SDS011;6287;50.984;7.022;2023-12-22T01:07:12;1.80;;;0.90;;
12445;SDS011;6287;50.984;7.022;2023-12-22T01:09:39;2.30;;;0.87;;
12445;SDS011;6287;50.984;7.022;2023-12-22T01:12:04;3.33;;;0.70;;
12445;SDS011;6287;50.984;7.022;2023-12-22T01:14:32;4.50;;;1.10;;
12445;SDS011;6287;50.984;7.022;2023-12-22T01:16:58;3.47;;;0.90;;
12445;SDS011;6287;50.984;7.022;2023-12-22T01:19:26;4.33;;;0.90;;
12445;SDS011;6287;50.984;7.022;2023-12-22T01:21:52;3.03;;;0.90;;
12445;SDS011;6287;50.984;7.022;2023-12-22T01:24:18;6.17;;;1.20;;
12445;SDS011;6287;50.984;7.022;2023-12-22T01:26:46;3.23;;;0.90;;
12445;SDS011;6287;50.984;7.022;2023-12-22T01:29:11;3.80;;;1.00;;
12445;SDS011;6287;50.984;7.022;2023-12-22T01:31:37;1.60;;;0.77;;
12445;SDS011;6287;50.984;7.022;2023-12-22T01:34:02;3.43;;;1.00;;
12445;SDS011;6287;50.984;7.022;2023-12-22T01:36:28;6.13;;;1.17;;
12445;SDS011;6287;50.984;7.022;2023-12-22T01:38:54;4.60;;;1.00;;
12445;SDS011;6287;50.984;7.022;2023-12-22T01:41:22;4.47;;;1.23;;
12445;SDS011;6287;50.984;7.022;2023-12-22T01:43:47;4.37;;;1.00;;
12445;SDS011;6287;50.984;7.022;2023-12-22T01:46:13;2.87;;;1.03;;
12445;SDS011;6287;50.984;7.022;2023-12-22T01:48:41;5.63;;;0.80;;
12445;SDS011;6287;50.984;7.022;2023-12-22T01:51:07;4.20;;;1.00;;
12445;SDS011;6287;50.984;7.022;2023-12-22T01:53:35;1.97;;;0.93;;
12445;SDS011;6287;50.984;7.022;2023-12-22T01:56:01;2.57;;;1.00;;
12445;SDS011;6287;50.984;7.022;2023-12-22T01:58:27;3.73;;;0.70;;
12445;SDS011;6287;50.984;7.022;2023-12-22T02:00:58;3.53;;;0.83;;
12445;SDS011;6287;50.984;7.022;2023-12-22T02:03:23;6.50;;;1.20;;
12445;SDS011;6287;50.984;7.022;2023-12-22T02:05:52;3.60;;;0.80;;
12445;SDS011;6287;50.984;7.022;2023-12-22T02:08:18;4.83;;;1.00;;
12445;SDS011;6287;50.984;7.022;2023-12-22T02:10:46;3.03;;;0.77;;
12445;SDS011;6287;50.984;7.022;2023-12-22T02:13:12;1.80;;;0.70;;
12445;SDS011;6287;50.984;7.022;2023-12-22T02:15:41;2.90;;;1.00;;
12445;SDS011;6287;50.984;7.022;2023-12-22T02:18:21;4.73;;;1.27;;
12445;SDS011;6287;50.984;7.022;2023-12-22T02:20:52;2.40;;;0.87;;
12445;SDS011;6287;50.984;7.022;2023-12-22T02:23:20;2.57;;;0.87;;
12445;SDS011;6287;50.984;7.022;2023-12-22T02:25:46;3.77;;;1.17;;
12445;SDS011;6287;50.984;7.022;2023-12-22T02:28:13;2.97;;;1.00;;
12445;SDS011;6287;50.984;7.022;2023-12-22T02:33:19;3.80;;;1.27;;
12445;SDS011;6287;50.984;7.022;2023-12-22T02:35:53;6.13;;;1.07;;
12445;SDS011;6287;50.984;7.022;2023-12-22T02:38:27;5.87;;;1.00;;
12445;SDS011;6287;50.984;7.022;2023-12-22T02:40:54;3.20;;;1.17;;
12445;SDS011;6287;50.984;7.022;2023-12-22T02:43:21;2.43;;;0.87;;
12445;SDS011;6287;50.984;7.022;2023-12-22T02:45:50;6.97;;;1.27;;
12445;SDS011;6287;50.984;7.022;2023-12-22T02:48:16;5.03;;;1.30;;
12445;SDS011;6287;50.984;7.022;2023-12-22T02:50:41;4.17;;;1.07;;
12445;SDS011;6287;50.984;7.022;2023-12-22T02:53:07;3.07;;;1.30;;
12445;SDS011;6287;50.984;7.022;2023-12-22T02:55:33;5.13;;;1.47;;
12445;SDS011;6287;50.984;7.022;2023-12-22T02:57:58;6.20;;;1.30;;
12445;SDS011;6287;50.984;7.022;2023-12-22T03:00:24;5.87;;;1.20;;
12445;SDS011;6287;50.984;7.022;2023-12-22T03:02:52;5.80;;;1.40;;
12445;SDS011;6287;50.984;7.022;2023-12-22T03:05:20;4.67;;;1.30;;
12445;SDS011;6287;50.984;7.022;2023-12-22T03:07:48;6.23;;;0.93;;
12445;SDS011;6287;50.984;7.022;2023-12-22T03:10:13;4.70;;;1.30;;
12445;SDS011;6287;50.984;7.022;2023-12-22T03:12:39;8.57;;;1.50;;
12445;SDS011;6287;50.984;7.022;2023-12-22T03:15:07;6.77;;;1.27;;
12445;SDS011;6287;50.984;7.022;2023-12-22T03:17:33;6.23;;;1.37;;
12445;SDS011;6287;50.984;7.022;2023-12-22T03:20:03;3.83;;;2.10;;
12445;SDS011;6287;50.984;7.022;2023-12-22T03:22:29;3.47;;;1.60;;
12445;SDS011;6287;50.984;7.022;2023-12-22T03:24:57;6.70;;;1.60;;
12445;SDS011;6287;50.984;7.022;2023-12-22T03:27:25;6.43;;;1.73;;
12445;SDS011;6287;50.984;7.022;2023-12-22T03:29:53;7.63;;;2.27;;
12445;SDS011;6287;50.984;7.022;2023-12-22T03:32:19;3.80;;;1.60;;
12445;SDS011;6287;50.984;7.022;2023-12-22T03:34:45;5.83;;;1.87;;
12445;SDS011;6287;50.984;7.022;2023-12-22T03:37:11;6.73;;;1.40;;
12445;SDS011;6287;50.984;7.022;2023-12-22T03:39:36;7.33;;;1.70;;
12445;SDS011;6287;50.984;7.022;2023-12-22T03:42:04;6.83;;;1.90;;
12445;SDS011;6287;50.984;7.022;2023-12-22T03:44:30;7.20;;;1.40;;
12445;SDS011;6287;50.984;7.022;2023-12-22T03:46:56;3.13;;;1.23;;
12445;SDS011;6287;50.984;7.022;2023-12-22T03:49:22;8.77;;;1.80;;
12445;SDS011;6287;50.984;7.022;2023-12-22T03:51:47;5.40;;;1.40;;
12445;SDS011;6287;50.984;7.022;2023-12-22T03:54:15;6.30;;;1.73;;
12445;SDS011;6287;50.984;7.022;2023-12-22T03:56:44;6.83;;;1.90;;
12445;SDS011;6287;50.984;7.022;2023-12-22T03:59:10;7.47;;;1.80;;
12445;SDS011;6287;50.984;7.022;2023-12-22T04:01:38;8.83;;;1.77;;
12445;SDS011;6287;50.984;7.022;2023-12-22T04:04:07;7.90;;;1.70;;
12445;SDS011;6287;50.984;7.022;2023-12-22T04:06:33;5.37;;;1.87;;
12445;SDS011;6287;50.984;7.022;2023-12-22T04:09:02;5.87;;;1.93;;
12445;SDS011;6287;50.984;7.022;2023-12-22T04:11:30;6.50;;;2.10;;
12445;SDS011;6287;50.984;7.022;2023-12-22T04:14:02;8.30;;;1.60;;
12445;SDS011;6287;50.984;7.022;2023-12-22T04:16:30;10.03;;;1.87;;
12445;SDS011;6287;50.984;7.022;2023-12-22T04:18:55;4.33;;;1.43;;
12445;SDS011;6287;50.984;7.022;2023-12-22T04:21:21;4.93;;;1.40;;
12445;SDS011;6287;50.984;7.022;2023-12-22T04:23:46;4.53;;;1.23;;
12445;SDS011;6287;50.984;7.022;2023-12-22T04:26:12;6.57;;;1.57;;
12445;SDS011;6287;50.984;7.022;2023-12-22T04:28:38;4.67;;;1.37;;
12445;SDS011;6287;50.984;7.022;2023-12-22T04:31:03;10.10;;;1.73;;
12445;SDS011;6287;50.984;7.022;2023-12-22T04:33:31;4.83;;;1.37;;
12445;SDS011;6287;50.984;7.022;2023-12-22T04:35:57;6.77;;;1.40;;
12445;SDS011;6287;50.984;7.022;2023-12-22T04:38:22;11.43;;;2.00;;
12445;SDS011;6287;50.984;7.022;2023-12-22T04:40:50;5.93;;;1.43;;
12445;SDS011;6287;50.984;7.022;2023-12-22T04:43:18;3.80;;;1.40;;
12445;SDS011;6287;50.984;7.022;2023-12-22T04:45:46;6.17;;;1.53;;
12445;SDS011;6287;50.984;7.022;2023-12-22T04:48:14;5.17;;;1.70;;
12445;SDS011;6287;50.984;7.022;2023-12-22T04:50:40;5.57;;;1.77;;
12445;SDS011;6287;50.984;7.022;2023-12-22T04:53:08;10.27;;;1.83;;
12445;SDS011;6287;50.984;7.022;2023-12-22T04:55:33;3.37;;;1.60;;
12445;SDS011;6287;50.984;7.022;2023-12-22T04:58:04;3.73;;;1.57;;
12445;SDS011;6287;50.984;7.022;2023-12-22T05:00:34;5.20;;;1.60;;
12445;SDS011;6287;50.984;7.022;2023-12-22T05:03:01;2.93;;;1.07;;
12445;SDS011;6287;50.984;7.022;2023-12-22T05:05:28;3.83;;;1.20;;
12445;SDS011;6287;50.984;7.022;2023-12-22T05:07:54;4.23;;;1.53;;
12445;SDS011;6287;50.984;7.022;2023-12-22T05:10:25;7.17;;;1.50;;
12445;SDS011;6287;50.984;7.022;2023-12-22T05:12:53;6.77;;;1.77;;
12445;SDS011;6287;50.984;7.022;2023-12-22T05:15:19;5.83;;;1.47;;
12445;SDS011;6287;50.984;7.022;2023-12-22T05:17:44;5.67;;;1.60;;
12445;SDS011;6287;50.984;7.022;2023-12-22T05:20:10;9.53;;;1.87;;
12445;SDS011;6287;50.984;7.022;2023-12-22T05:22:39;3.83;;;1.30;;
12445;SDS011;6287;50.984;7.022;2023-12-22T05:25:05;9.57;;;1.60;;
12445;SDS011;6287;50.984;7.022;2023-12-22T05:27:31;2.20;;;1.60;;
12445;SDS011;6287;50.984;7.022;2023-12-22T05:29:57;6.73;;;2.00;;
12445;SDS011;6287;50.984;7.022;2023-12-22T05:32:26;5.63;;;1.40;;
12445;SDS011;6287;50.984;7.022;2023-12-22T05:34:57;4.97;;;1.40;;
12445;SDS011;6287;50.984;7.022;2023-12-22T05:37:22;5.33;;;1.60;;
12445;SDS011;6287;50.984;7.022;2023-12-22T05:39:51;4.90;;;1.63;;
12445;SDS011;6287;50.984;7.022;2023-12-22T05:42:18;9.33;;;1.80;;
12445;SDS011;6287;50.984;7.022;2023-12-22T05:44:44;8.07;;;1.67;;
12445;SDS011;6287;50.984;7.022;2023-12-22T05:47:14;9.07;;;1.43;;
12445;SDS011;6287;50.984;7.022;2023-12-22T05:49:43;9.73;;;2.13;;
12445;SDS011;6287;50.984;7.022;2023-12-22T05:52:11;9.70;;;2.43;;
12445;SDS011;6287;50.984;7.022;2023-12-22T05:54:38;3.03;;;1.20;;
12445;SDS011;6287;50.984;7.022;2023-12-22T05:57:06;5.30;;;1.73;;
12445;SDS011;6287;50.984;7.022;2023-12-22T05:59:32;6.47;;;1.47;;
12445;SDS011;6287;50.984;7.022;2023-12-22T06:01:59;8.63;;;1.50;;
12445;SDS011;6287;50.984;7.022;2023-12-22T06:04:28;8.83;;;2.13;;
12445;SDS011;6287;50.984;7.022;2023-12-22T06:06:53;5.10;;;1.53;;
12445;SDS011;6287;50.984;7.022;2023-12-22T06:09:19;11.37;;;1.97;;
12445;SDS011;6287;50.984;7.022;2023-12-22T06:11:45;6.33;;;1.47;;
12445;SDS011;6287;50.984;7.022;2023-12-22T06:14:11;4.97;;;1.60;;
12445;SDS011;6287;50.984;7.022;2023-12-22T06:16:37;6.17;;;1.37;;
12445;SDS011;6287;50.984;7.022;2023-12-22T06:19:02;4.10;;;1.30;;
12445;SDS011;6287;50.984;7.022;2023-12-22T06:21:28;5.27;;;1.60;;
12445;SDS011;6287;50.984;7.022;2023-12-22T06:23:54;6.80;;;1.80;;
12445;SDS011;6287;50.984;7.022;2023-12-22T06:26:22;7.33;;;2.13;;
12445;SDS011;6287;50.984;7.022;2023-12-22T06:28:50;6.87;;;1.43;;
12445;SDS011;6287;50.984;7.022;2023-12-22T06:31:16;5.60;;;1.63;;
12445;SDS011;6287;50.984;7.022;2023-12-22T06:33:43;8.43;;;1.97;;
12445;SDS011;6287;50.984;7.022;2023-12-22T06:36:19;4.73;;;1.77;;
12445;SDS011;6287;50.984;7.022;2023-12-22T06:38:50;7.60;;;1.80;;
12445;SDS011;6287;50.984;7.022;2023-12-22T06:41:25;5.63;;;1.60;;
12445;SDS011;6287;50.984;7.022;2023-12-22T06:43:54;8.23;;;2.00;;
12445;SDS011;6287;50.984;7.022;2023-12-22T06:46:24;7.83;;;1.53;;
12445;SDS011;6287;50.984;7.022;2023-12-22T06:48:56;2.47;;;1.40;;
12445;SDS011;6287;50.984;7.022;2023-12-22T06:53:51;6.00;;;2.93;;
12445;SDS011;6287;50.984;7.022;2023-12-22T06:56:19;5.23;;;1.47;;
12445;SDS011;6287;50.984;7.022;2023-12-22T06:58:46;10.90;;;1.60;;
12445;SDS011;6287;50.984;7.022;2023-12-22T07:01:19;5.60;;;1.57;;
12445;SDS011;6287;50.984;7.022;2023-12-22T07:03:57;7.97;;;1.40;;
12445;SDS011;6287;50.984;7.022;2023-12-22T07:06:27;5.83;;;1.03;;
12445;SDS011;6287;50.984;7.022;2023-12-22T07:08:56;3.43;;;1.20;;
12445;SDS011;6287;50.984;7.022;2023-12-22T07:11:40;2.40;;;0.90;;
12445;SDS011;6287;50.984;7.022;2023-12-22T07:14:07;8.50;;;4.00;;
12445;SDS011;6287;50.984;7.022;2023-12-22T07:16:33;4.27;;;0.83;;
12445;SDS011;6287;50.984;7.022;2023-12-22T07:19:01;4.90;;;1.43;;
12445;SDS011;6287;50.984;7.022;2023-12-22T07:21:26;3.50;;;1.00;;
12445;SDS011;6287;50.984;7.022;2023-12-22T07:23:54;3.23;;;0.80;;
12445;SDS011;6287;50.984;7.022;2023-12-22T07:26:23;1.97;;;0.80;;
12445;SDS011;6287;50.984;7.022;2023-12-22T07:28:49;1.73;;;0.80;;
12445;SDS011;6287;50.984;7.022;2023-12-22T07:31:15;2.33;;;1.30;;
12445;SDS011;6287;50.984;7.022;2023-12-22T07:33:41;5.23;;;1.30;;
12445;SDS011;6287;50.984;7.022;2023-12-22T07:36:13;2.67;;;0.90;;
12445;SDS011;6287;50.984;7.022;2023-12-22T07:38:40;5.53;;;0.90;;
12445;SDS011;6287;50.984;7.022;2023-12-22T07:41:07;4.37;;;0.93;;
12445;SDS011;6287;50.984;7.022;2023-12-22T07:43:35;4.33;;;1.60;;
12445;SDS011;6287;50.984;7.022;2023-12-22T07:46:16;2.37;;;0.90;;
12445;SDS011;6287;50.984;7.022;2023-12-22T07:48:44;2.37;;;1.00;;
12445;SDS011;6287;50.984;7.022;2023-12-22T07:51:12;5.57;;;1.43;;
12445;SDS011;6287;50.984;7.022;2023-12-22T07:53:38;7.80;;;1.63;;
12445;SDS011;6287;50.984;7.022;2023-12-22T07:56:06;2.87;;;1.10;;
12445;SDS011;6287;50.984;7.022;2023-12-22T07:58:35;3.80;;;1.40;;
12445;SDS011;6287;50.984;7.022;2023-12-22T08:01:01;5.50;;;1.40;;
12445;SDS011;6287;50.984;7.022;2023-12-22T08:03:27;1.60;;;0.93;;
12445;SDS011;6287;50.984;7.022;2023-12-22T08:05:58;3.00;;;1.20;;
12445;SDS011;6287;50.984;7.022;2023-12-22T08:08:23;3.57;;;1.33;;
12445;SDS011;6287;50.984;7.022;2023-12-22T08:10:51;6.57;;;1.50;;
12445;SDS011;6287;50.984;7.022;2023-12-22T08:13:18;5.63;;;1.70;;
12445;SDS011;6287;50.984;7.022;2023-12-22T08:15:44;9.73;;;2.30;;
12445;SDS011;6287;50.984;7.022;2023-12-22T08:18:11;5.40;;;2.27;;
12445;SDS011;6287;50.984;7.022;2023-12-22T08:20:37;11.20;;;2.33;;
12445;SDS011;6287;50.984;7.022;2023-12-22T08:23:05;8.67;;;2.40;;
12445;SDS011;6287;50.984;7.022;2023-12-22T08:25:33;10.93;;;2.70;;
12445;SDS011;6287;50.984;7.022;2023-12-22T08:28:01;6.03;;;2.37;;
12445;SDS011;6287;50.984;7.022;2023-12-22T08:30:32;11.50;;;2.40;;
12445;SDS011;6287;50.984;7.022;2023-12-22T08:32:58;9.20;;;2.33;;
12445;SDS011;6287;50.984;7.022;2023-12-22T08:35:24;11.70;;;2.90;;
12445;SDS011;6287;50.984;7.022;2023-12-22T08:37:52;16.13;;;3.23;;
12445;SDS011;6287;50.984;7.022;2023-12-22T08:40:17;15.80;;;3.17;;
12445;SDS011;6287;50.984;7.022;2023-12-22T08:42:52;12.03;;;2.90;;
12445;SDS011;6287;50.984;7.022;2023-12-22T08:45:27;8.80;;;3.23;;
12445;SDS011;6287;50.984;7.022;2023-12-22T08:47:54;17.80;;;4.73;;
12445;SDS011;6287;50.984;7.022;2023-12-22T08:50:20;18.00;;;4.37;;
12445;SDS011;6287;50.984;7.022;2023-12-22T08:52:46;16.20;;;3.50;;
12445;SDS011;6287;50.984;7.022;2023-12-22T08:55:14;13.57;;;3.50;;
12445;SDS011;6287;50.984;7.022;2023-12-22T08:57:42;9.13;;;2.90;;
12445;SDS011;6287;50.984;7.022;2023-12-22T09:00:10;13.97;;;3.20;;
12445;SDS011;6287;50.984;7.022;2023-12-22T09:02:40;14.30;;;3.30;;
12445;SDS011;6287;50.984;7.022;2023-12-22T09:05:06;10.47;;;2.57;;
12445;SDS011;6287;50.984;7.022;2023-12-22T09:07:34;14.93;;;3.17;;
12445;SDS011;6287;50.984;7.022;2023-12-22T09:10:02;11.43;;;2.30;;
12445;SDS011;6287;50.984;7.022;2023-12-22T09:12:28;12.53;;;3.07;;
12445;SDS011;6287;50.984;7.022;2023-12-22T09:14:56;11.47;;;2.60;;
12445;SDS011;6287;50.984;7.022;2023-12-22T09:17:23;10.27;;;2.90;;
12445;SDS011;6287;50.984;7.022;2023-12-22T09:19:52;7.87;;;2.90;;
12445;SDS011;6287;50.984;7.022;2023-12-22T09:22:22;8.20;;;2.30;;
12445;SDS011;6287;50.984;7.022;2023-12-22T09:24:48;10.60;;;2.90;;
12445;SDS011;6287;50.984;7.022;2023-12-22T09:27:18;9.70;;;2.50;;
12445;SDS011;6287;50.984;7.022;2023-12-22T09:29:46;13.43;;;3.37;;
12445;SDS011;6287;50.984;7.022;2023-12-22T09:32:12;8.73;;;2.77;;
12445;SDS011;6287;50.984;7.022;2023-12-22T09:34:38;13.20;;;2.70;;
12445;SDS011;6287;50.984;7.022;2023-12-22T09:37:05;10.07;;;2.90;;
12445;SDS011;6287;50.984;7.022;2023-12-22T09:39:33;8.40;;;2.60;;
12445;SDS011;6287;50.984;7.022;2023-12-22T09:41:58;9.93;;;3.03;;
12445;SDS011;6287;50.984;7.022;2023-12-22T09:44:27;12.47;;;3.07;;
12445;SDS011;6287;50.984;7.022;2023-12-22T09:46:58;9.23;;;2.50;;
12445;SDS011;6287;50.984;7.022;2023-12-22T09:49:26;12.07;;;2.50;;
12445;SDS011;6287;50.984;7.022;2023-12-22T09:51:52;7.70;;;2.60;;
12445;SDS011;6287;50.984;7.022;2023-12-22T09:54:21;11.30;;;2.53;;
12445;SDS011;6287;50.984;7.022;2023-12-22T09:56:47;10.57;;;2.33;;
12445;SDS011;6287;50.984;7.022;2023-12-22T09:59:15;5.97;;;2.20;;
12445;SDS011;6287;50.984;7.022;2023-12-22T10:01:45;10.10;;;2.47;;
12445;SDS011;6287;50.984;7.022;2023-12-22T10:04:13;7.50;;;2.13;;
12445;SDS011;6287;50.984;7.022;2023-12-22T10:06:41;8.20;;;2.13;;
12445;SDS011;6287;50.984;7.022;2023-12-22T10:09:13;10.63;;;2.70;;
12445;SDS011;6287;50.984;7.022;2023-12-22T10:11:40;5.43;;;1.73;;
12445;SDS011;6287;50.984;7.022;2023-12-22T10:14:11;5.60;;;2.23;;
12445;SDS011;6287;50.984;7.022;2023-12-22T10:16:40;6.63;;;1.90;;
12445;SDS011;6287;50.984;7.022;2023-12-22T10:19:06;5.23;;;1.60;;
12445;SDS011;6287;50.984;7.022;2023-12-22T10:21:33;5.90;;;1.70;;
12445;SDS011;6287;50.984;7.022;2023-12-22T10:24:00;7.57;;;1.73;;
12445;SDS011;6287;50.984;7.022;2023-12-22T10:26:31;7.20;;;2.00;;
12445;SDS011;6287;50.984;7.022;2023-12-22T10:28:58;6.83;;;1.47;;
12445;SDS011;6287;50.984;7.022;2023-12-22T10:31:26;5.00;;;1.60;;
12445;SDS011;6287;50.984;7.022;2023-12-22T10:33:53;7.20;;;1.60;;
12445;SDS011;6287;50.984;7.022;2023-12-22T10:36:23;3.53;;;1.13;;
12445;SDS011;6287;50.984;7.022;2023-12-22T10:38:51;1.43;;;1.20;;
12445;SDS011;6287;50.984;7.022;2023-12-22T10:41:18;5.77;;;1.60;;
12445;SDS011;6287;50.984;7.022;2023-12-22T10:43:44;3.30;;;1.07;;
12445;SDS011;6287;50.984;7.022;2023-12-22T10:46:11;4.63;;;1.30;;
12445;SDS011;6287;50.984;7.022;2023-12-22T10:48:40;3.23;;;1.33;;
12445;SDS011;6287;50.984;7.022;2023-12-22T10:51:09;2.10;;;1.20;;
12445;SDS011;6287;50.984;7.022;2023-12-22T10:53:38;2.80;;;1.17;;
12445;SDS011;6287;50.984;7.022;2023-12-22T10:56:05;5.90;;;1.63;;
12445;SDS011;6287;50.984;7.022;2023-12-22T10:58:35;1.90;;;1.40;;
12445;SDS011;6287;50.984;7.022;2023-12-22T11:01:02;3.37;;;1.30;;
12445;SDS011;6287;50.984;7.022;2023-12-22T11:03:33;2.63;;;1.23;;
12445;SDS011;6287;50.984;7.022;2023-12-22T11:06:00;3.83;;;2.07;;
12445;SDS011;6287;50.984;7.022;2023-12-22T11:08:31;4.37;;;1.60;;
12445;SDS011;6287;50.984;7.022;2023-12-22T11:11:03;3.37;;;1.30;;
12445;SDS011;6287;50.984;7.022;2023-12-22T11:13:38;2.60;;;1.17;;
12445;SDS011;6287;50.984;7.022;2023-12-22T11:16:09;1.50;;;1.40;;
12445;SDS011;6287;50.984;7.022;2023-12-22T11:18:36;1.40;;;1.30;;
12445;SDS011;6287;50.984;7.022;2023-12-22T11:21:02;3.67;;;1.40;;
12445;SDS011;6287;50.984;7.022;2023-12-22T11:23:32;2.47;;;1.53;;
12445;SDS011;6287;50.984;7.022;2023-12-22T11:26:00;2.20;;;1.33;;
12445;SDS011;6287;50.984;7.022;2023-12-22T11:28:27;1.90;;;1.40;;
12445;SDS011;6287;50.984;7.022;2023-12-22T11:30:53;3.70;;;1.20;;
12445;SDS011;6287;50.984;7.022;2023-12-22T11:33:22;5.07;;;1.53;;
12445;SDS011;6287;50.984;7.022;2023-12-22T11:35:53;2.53;;;1.43;;
12445;SDS011;6287;50.984;7.022;2023-12-22T11:38:26;1.53;;;1.27;;
12445;SDS011;6287;50.984;7.022;2023-12-22T11:40:55;1.57;;;1.47;;
12445;SDS011;6287;50.984;7.022;2023-12-22T11:43:25;2.50;;;1.20;;
12445;SDS011;6287;50.984;7.022;2023-12-22T11:45:51;3.33;;;1.40;;
12445;SDS011;6287;50.984;7.022;2023-12-22T11:48:17;5.23;;;1.47;;
12445;SDS011;6287;50.984;7.022;2023-12-22T11:50:42;2.40;;;1.60;;
12445;SDS011;6287;50.984;7.022;2023-12-22T11:53:21;1.60;;;1.50;;
12445;SDS011;6287;50.984;7.022;2023-12-22T11:58:35;1.50;;;1.40;;
12445;SDS011;6287;50.984;7.022;2023-12-22T12:01:03;2.00;;;1.60;;
12445;SDS011;6287;50.984;7.022;2023-12-22T12:03:37;3.13;;;1.50;;
12445;SDS011;6287;50.984;7.022;2023-12-22T12:08:59;2.80;;;1.50;;
12445;SDS011;6287;50.984;7.022;2023-12-22T12:14:36;3.03;;;1.30;;
12445;SDS011;6287;50.984;7.022;2023-12-22T12:17:09;3.27;;;1.67;;
12445;SDS011;6287;50.984;7.022;2023-12-22T12:19:36;1.33;;;1.07;;
12445;SDS011;6287;50.984;7.022;2023-12-22T12:22:03;1.33;;;1.23;;
12445;SDS011;6287;50.984;7.022;2023-12-22T12:24:29;2.53;;;1.23;;
12445;SDS011;6287;50.984;7.022;2023-12-22T12:26:58;1.63;;;1.17;;
12445;SDS011;6287;50.984;7.022;2023-12-22T12:29:26;2.60;;;0.80;;
12445;SDS011;6287;50.984;7.022;2023-12-22T12:32:07;3.70;;;1.10;;
12445;SDS011;6287;50.984;7.022;2023-12-22T12:34:32;3.40;;;1.20;;
12445;SDS011;6287;50.984;7.022;2023-12-22T12:37:01;2.87;;;1.00;;
12445;SDS011;6287;50.984;7.022;2023-12-22T12:39:29;1.37;;;0.90;;
12445;SDS011;6287;50.984;7.022;2023-12-22T12:41:59;2.20;;;1.10;;
12445;SDS011;6287;50.984;7.022;2023-12-22T12:44:37;1.90;;;1.20;;
12445;SDS011;6287;50.984;7.022;2023-12-22T12:47:15;2.00;;;1.10;;
12445;SDS011;6287;50.984;7.022;2023-12-22T12:49:40;3.13;;;0.97;;
12445;SDS011;6287;50.984;7.022;2023-12-22T12:52:11;2.40;;;1.17;;
12445;SDS011;6287;50.984;7.022;2023-12-22T12:54:42;1.77;;;1.00;;
12445;SDS011;6287;50.984;7.022;2023-12-22T12:57:14;1.37;;;1.17;;
12445;SDS011;6287;50.984;7.022;2023-12-22T12:59:44;3.77;;;1.07;;
12445;SDS011;6287;50.984;7.022;2023-12-22T13:02:12;4.17;;;1.20;;
12445;SDS011;6287;50.984;7.022;2023-12-22T13:04:39;2.03;;;1.10;;
12445;SDS011;6287;50.984;7.022;2023-12-22T13:07:05;2.73;;;0.90;;
12445;SDS011;6287;50.984;7.022;2023-12-22T13:09:32;2.90;;;0.93;;
12445;SDS011;6287;50.984;7.022;2023-12-22T13:12:01;1.37;;;0.90;;
12445;SDS011;6287;50.984;7.022;2023-12-22T13:14:31;2.90;;;1.30;;
12445;SDS011;6287;50.984;7.022;2023-12-22T13:16:59;6.90;;;1.27;;
12445;SDS011;6287;50.984;7.022;2023-12-22T13:19:25;1.43;;;0.73;;
12445;SDS011;6287;50.984;7.022;2023-12-22T13:21:54;1.97;;;0.90;;
12445;SDS011;6287;50.984;7.022;2023-12-22T13:24:20;5.20;;;1.33;;
12445;SDS011;6287;50.984;7.022;2023-12-22T13:26:46;4.70;;;1.17;;
12445;SDS011;6287;50.984;7.022;2023-12-22T13:29:12;1.70;;;0.93;;
12445;SDS011;6287;50.984;7.022;2023-12-22T13:31:39;4.20;;;1.40;;
12445;SDS011;6287;50.984;7.022;2023-12-22T13:34:14;1.83;;;0.90;;
12445;SDS011;6287;50.984;7.022;2023-12-22T13:36:41;1.63;;;0.90;;
12445;SDS011;6287;50.984;7.022;2023-12-22T13:39:07;1.37;;;0.90;;
12445;SDS011;6287;50.984;7.022;2023-12-22T13:41:34;2.73;;;0.90;;
12445;SDS011;6287;50.984;7.022;2023-12-22T13:44:06;2.67;;;1.47;;
12445;SDS011;6287;50.984;7.022;2023-12-22T13:46:34;1.43;;;0.80;;
12445;SDS011;6287;50.984;7.022;2023-12-22T13:49:05;2.13;;;1.20;;
12445;SDS011;6287;50.984;7.022;2023-12-22T13:51:44;2.30;;;1.10;;
12445;SDS011;6287;50.984;7.022;2023-12-22T13:54:12;1.90;;;1.20;;
12445;SDS011;6287;50.984;7.022;2023-12-22T13:56:41;0.97;;;0.97;;
12445;SDS011;6287;50.984;7.022;2023-12-22T13:59:11;2.90;;;1.00;;
12445;SDS011;6287;50.984;7.022;2023-12-22T14:01:39;2.50;;;1.00;;
12445;SDS011;6287;50.984;7.022;2023-12-22T14:04:05;3.20;;;1.00;;
12445;SDS011;6287;50.984;7.022;2023-12-22T14:06:30;1.77;;;0.97;;
12445;SDS011;6287;50.984;7.022;2023-12-22T14:08:56;4.30;;;1.40;;
12445;SDS011;6287;50.984;7.022;2023-12-22T14:11:22;2.13;;;1.20;;
12445;SDS011;6287;50.984;7.022;2023-12-22T14:13:52;3.43;;;1.20;;
12445;SDS011;6287;50.984;7.022;2023-12-22T14:16:23;1.77;;;1.20;;
12445;SDS011;6287;50.984;7.022;2023-12-22T14:18:51;2.07;;;1.00;;
12445;SDS011;6287;50.984;7.022;2023-12-22T14:21:16;3.10;;;1.20;;
12445;SDS011;6287;50.984;7.022;2023-12-22T14:23:42;3.30;;;1.40;;
12445;SDS011;6287;50.984;7.022;2023-12-22T14:26:08;3.07;;;1.67;;
12445;SDS011;6287;50.984;7.022;2023-12-22T14:28:36;2.50;;;1.30;;
12445;SDS011;6287;50.984;7.022;2023-12-22T14:31:01;3.73;;;1.50;;
12445;SDS011;6287;50.984;7.022;2023-12-22T14:33:27;1.63;;;1.47;;
12445;SDS011;6287;50.984;7.022;2023-12-22T14:35:52;2.20;;;1.23;;
12445;SDS011;6287;50.984;7.022;2023-12-22T14:38:18;4.50;;;1.50;;
12445;SDS011;6287;50.984;7.022;2023-12-22T14:40:46;5.23;;;1.50;;
12445;SDS011;6287;50.984;7.022;2023-12-22T14:43:12;4.07;;;1.40;;
12445;SDS011;6287;50.984;7.022;2023-12-22T14:45:42;4.33;;;1.63;;
12445;SDS011;6287;50.984;7.022;2023-12-22T14:48:07;3.40;;;1.10;;
12445;SDS011;6287;50.984;7.022;2023-12-22T14:50:36;3.13;;;1.67;;
12445;SDS011;6287;50.984;7.022;2023-12-22T14:53:03;3.13;;;1.20;;
12445;SDS011;6287;50.984;7.022;2023-12-22T14:55:30;5.17;;;1.43;;
12445;SDS011;6287;50.984;7.022;2023-12-22T14:57:59;3.50;;;1.40;;
12445;SDS011;6287;50.984;7.022;2023-12-22T15:00:25;5.87;;;1.20;;
12445;SDS011;6287;50.984;7.022;2023-12-22T15:02:52;1.53;;;0.93;;
12445;SDS011;6287;50.984;7.022;2023-12-22T15:05:21;2.73;;;1.17;;
12445;SDS011;6287;50.984;7.022;2023-12-22T15:07:53;1.13;;;0.90;;
12445;SDS011;6287;50.984;7.022;2023-12-22T15:10:21;3.50;;;1.13;;
12445;SDS011;6287;50.984;7.022;2023-12-22T15:12:46;2.20;;;0.93;;
12445;SDS011;6287;50.984;7.022;2023-12-22T15:15:13;2.37;;;1.20;;
12445;SDS011;6287;50.984;7.022;2023-12-22T15:17:43;3.33;;;1.20;;